Rushford, MN (55971)

10:40 AM CST on December 04, 2016 (GMT -0600)
500 Nannestad Lane | | Change Station
Active Advisory: Winter Weather Advisory Active Notice: Public Information Statement

Elev 728 ft 43.81 °N, 91.75 °W | Updated 35 seconds ago

Light Snow
Light Snow
33.4 °F
Feels Like 33 °F
N
3.0
Wind Variable Wind from SSW

Today
High -- | Low -- °F
--% Chance of Precip.
Yesterday
High -- | Low -- °F
Precip. -- in
Pressure 29.95 in
Visibility 1.8 miles
Clouds Mostly Cloudy 1000 ft
Overcast 1400 ft
Windchill 33 °F
Dew Point 33 °F
Humidity 98%
Rainfall 0.00 in
Snow Depth Not available.
7:24 AM 4:29 PM
Waxing Crescent, 23% visible
METAR KONA 041633Z AUTO 15004KT 1 3/4SM -SN BKN010 OVC014 01/01 A2995 RMK AO2 P0001
Pressure 29.95 in
Visibility 1.8 miles
Clouds Mostly Cloudy 1000 ft
Overcast 1400 ft
Windchill 33 °F
Dew Point 33 °F
Humidity 98%
Rainfall 0.00 in
Snow Depth Not available.
7:24 AM 4:29 PM
Waxing Crescent, 23% visible
METAR KONA 041633Z AUTO 15004KT 1 3/4SM -SN BKN010 OVC014 01/01 A2995 RMK AO2 P0001

10-Day Weather Forecast

Almanac

Astronomy

Dec. 04, 2016 Rise Set
Actual Time
Civil Twilight
Nautical Twilight
Astronomical Twilight
Moon
Length of Visible Light
Length of Day
Tomorrow will be .
, % of the Moon is Illuminated

Today's Extremes

State Highs State Lows

Community

WunderPhotos

Upload Photos

1,955,622 photos uploaded!

WunderBlog® & News

Nearby

Air Quality

  Air Quality AQ Index Pollutant
Not available.

Snow Depth

Station Depth Elevation

Earthquake Activity

City Distance Mag. Time & Date
Minimum magnitude displayed is 2.5.

Coastal Water Temperatures

Place Temperature

Stations

Nearby Weather Stations

Station Location Temp. Windchill Dew Point Humidity Wind Precip. Elev Updated Type
                   

Watches & Warnings

Winter Weather Advisory
Issued: 9:34 AM CST Dec. 4, 2016 – National Weather Service

... Winter Weather Advisory remains in effect until noon CST
today...

* periods of snow will gradually end from the west this morning.

* Up to an additional 2 inches is expected through noon today.

* Total snow accumulation of 2 to 4 inches is expected... with
localized amounts of 5 inches possible over northeast Iowa.

* Look for reduced visibilities at times.

* Plan on slippery Road conditions.

Precautionary/preparedness actions...

A Winter Weather Advisory means that periods of snow will cause
travel difficulties. Be prepared for slippery roads and limited
visibilities... and use caution while driving. The latest Road
conditions for the state you are calling from can be obtained by
calling 5 1 1.



Boyne